createdAt,value
2022-10-23T00:01:45.710Z,159742.56
2022-10-23T00:05:15.725Z,159735.88
2022-10-23T00:08:15.875Z,159734.56
2022-10-23T00:10:44.580Z,159730.53
2022-10-23T00:13:13.103Z,159742.56
2022-10-23T00:15:41.059Z,159746.56
2022-10-23T00:18:09.924Z,159737.22
2022-10-23T00:20:37.880Z,159733.19
2022-10-23T00:23:06.248Z,159751.91
2022-10-23T00:25:34.504Z,159746.56
2022-10-23T00:28:03.247Z,159747.94
2022-10-23T00:30:31.226Z,159753.22
2022-10-23T00:32:59.291Z,159726.56
2022-10-23T00:35:27.740Z,159726.56
2022-10-23T00:37:56.061Z,159743.91
2022-10-23T00:40:24.414Z,159747.94
2022-10-23T00:42:53.393Z,159747.94
2022-10-23T00:45:27.030Z,159746.56
2022-10-23T00:47:55.929Z,159749.25
2022-10-23T00:50:24.891Z,159746.56
2022-10-23T00:52:54.314Z,159738.53
2022-10-23T00:55:24.186Z,159735.88
2022-10-23T00:57:52.744Z,159747.94
2022-10-23T01:00:29.749Z,159750.59
2022-10-23T01:03:00.298Z,159754.59
2022-10-23T01:05:35.578Z,159750.59
2022-10-23T01:08:11.075Z,159745.22
2022-10-23T01:10:47.716Z,159757.25
2022-10-23T01:13:32.884Z,159755.94
2022-10-23T01:16:07.834Z,159750.59
2022-10-23T01:18:46.405Z,159766.59
2022-10-23T01:21:19.797Z,159767.94
2022-10-23T01:23:57.465Z,159774.59
2022-10-23T01:27:03.169Z,159785.31
2022-10-23T01:29:47.263Z,159777.31
2022-10-23T01:32:35.653Z,159777.31
2022-10-23T01:35:06.238Z,159789.31
2022-10-23T01:37:45.615Z,159782.63
2022-10-23T01:40:33.480Z,159787.97
2022-10-23T01:43:13.739Z,159781.28
2022-10-23T01:45:45.241Z,159786.66
2022-10-23T01:48:22.033Z,159777.31
2022-10-23T01:50:50.780Z,159790.69
2022-10-23T01:53:20.530Z,159792.00
2022-10-23T01:55:49.940Z,159798.69
2022-10-23T01:58:25.656Z,159794.66
2022-10-23T02:00:57.405Z,159792.00
2022-10-23T02:03:28.211Z,159801.34
2022-10-23T02:05:56.666Z,159793.34
2022-10-23T02:08:25.957Z,159792.00
2022-10-23T02:11:04.205Z,159820.06
2022-10-23T02:13:50.613Z,159801.34
2022-10-23T02:16:31.891Z,159804.03
2022-10-23T02:19:22.085Z,159818.75
2022-10-23T02:22:05.318Z,159814.72
2022-10-23T02:24:50.175Z,159814.72
2022-10-23T02:27:40.853Z,159813.38
2022-10-23T02:30:12.345Z,159824.03
2022-10-23T02:32:45.352Z,159820.06
2022-10-23T02:35:14.179Z,159821.41
2022-10-23T02:37:42.622Z,159802.66
2022-10-23T02:40:12.231Z,159801.34
2022-10-23T02:43:08.556Z,159796.00
2022-10-23T02:45:55.925Z,159804.03
2022-10-23T02:48:30.480Z,159801.34
2022-10-23T02:51:12.169Z,159804.03
2022-10-23T02:57:08.542Z,159802.66
2022-10-23T02:59:44.815Z,159805.38
2022-10-23T03:02:21.855Z,159792.00
2022-10-23T03:04:51.497Z,159797.34
2022-10-23T03:07:20.467Z,159794.66
2022-10-23T03:09:49.550Z,159787.97
2022-10-23T03:12:17.929Z,159771.94
2022-10-23T03:14:45.920Z,159785.31
2022-10-23T03:17:14.331Z,159776.00
2022-10-23T03:19:42.798Z,159777.31
2022-10-23T03:22:10.653Z,159769.31
2022-10-23T03:24:38.735Z,159770.63
2022-10-23T03:27:07.084Z,159766.59
2022-10-23T03:29:35.054Z,159758.59
2022-10-23T03:32:03.463Z,159751.91
2022-10-23T03:34:32.051Z,159758.59
2022-10-23T03:37:00.030Z,159766.59
2022-10-23T03:39:28.686Z,159769.31
2022-10-23T03:41:57.919Z,159769.31
2022-10-23T03:44:26.964Z,159774.59
2022-10-23T03:46:54.623Z,159778.63
2022-10-23T03:49:22.864Z,159776.00
2022-10-23T03:51:53.046Z,159774.59
2022-10-23T03:54:24.208Z,159774.59
2022-10-23T03:56:56.522Z,159782.63
2022-10-23T03:59:25.589Z,159782.63
2022-10-23T04:01:54.181Z,159782.63
2022-10-23T04:04:25.630Z,159782.63
2022-10-23T04:06:54.619Z,159765.28
2022-10-23T04:09:23.309Z,159755.94
2022-10-23T04:11:51.010Z,159761.25
2022-10-23T04:14:19.439Z,159757.25
2022-10-23T04:16:48.448Z,159753.22
2022-10-23T04:19:17.862Z,159738.53
2022-10-23T04:21:45.844Z,159742.56
2022-10-23T04:24:14.301Z,159741.25
2022-10-23T04:26:42.141Z,159730.53
2022-10-23T04:29:12.598Z,159723.84
2022-10-23T04:31:40.784Z,159731.84
2022-10-23T04:34:09.195Z,159715.84
2022-10-23T04:36:37.217Z,159730.53
2022-10-23T04:39:11.495Z,159707.84
2022-10-23T04:41:39.351Z,159723.84
2022-10-23T04:44:08.200Z,159723.84
2022-10-23T04:46:39.800Z,159734.56
2022-10-23T04:49:08.640Z,159734.56
2022-10-23T04:51:54.858Z,159738.53
2022-10-23T04:54:39.979Z,159734.56
2022-10-23T04:57:26.854Z,159713.19
2022-10-23T05:00:10.552Z,159726.56
2022-10-23T05:02:50.004Z,159711.81
2022-10-23T05:05:18.807Z,159722.53
2022-10-23T05:08:05.004Z,159703.81
2022-10-23T05:10:51.962Z,159689.13
2022-10-23T05:13:20.367Z,159682.38
2022-10-23T05:15:49.745Z,159658.34
2022-10-23T05:18:46.300Z,159681.06
2022-10-23T05:21:22.752Z,159670.41
2022-10-23T05:23:51.362Z,159675.69
2022-10-23T05:26:20.095Z,159663.72
2022-10-23T05:28:49.958Z,159667.69
2022-10-23T05:31:20.049Z,159653.00
2022-10-23T05:33:53.114Z,159651.69
2022-10-23T05:36:23.952Z,159643.66
2022-10-23T05:38:57.204Z,159640.97
2022-10-23T05:41:25.781Z,159643.66
2022-10-23T05:43:58.233Z,159638.31
2022-10-23T05:46:44.940Z,159643.66
2022-10-23T05:49:31.226Z,159615.63
2022-10-23T05:52:28.865Z,159624.94
2022-10-23T05:55:12.641Z,159603.59
2022-10-23T05:58:03.399Z,159614.28
2022-10-23T06:00:57.217Z,159596.91
2022-10-23T06:03:44.422Z,159603.59
2022-10-23T06:06:13.014Z,159611.59
2022-10-23T06:08:47.669Z,159624.94
2022-10-23T06:11:16.134Z,159624.94
2022-10-23T06:13:51.752Z,159643.66
2022-10-23T06:16:25.200Z,159634.28
2022-10-23T06:18:54.121Z,159626.28
2022-10-23T06:21:21.869Z,159647.66
2022-10-23T06:23:52.590Z,159651.69
2022-10-23T06:26:46.801Z,159643.66
2022-10-23T06:29:23.479Z,159677.06
2022-10-23T06:31:52.664Z,159655.66
2022-10-23T06:34:20.960Z,159659.69
2022-10-23T06:36:48.979Z,159673.06
2022-10-23T06:39:40.790Z,159650.34
2022-10-23T06:42:15.303Z,159667.69
2022-10-23T06:44:57.549Z,159669.03
2022-10-23T06:47:46.424Z,159690.44
2022-10-23T06:50:33.372Z,159698.50
2022-10-23T06:53:07.223Z,159699.81
2022-10-23T06:55:41.936Z,159693.16
2022-10-23T06:58:11.299Z,159706.50
2022-10-23T07:00:54.962Z,159698.50
2022-10-23T07:03:23.334Z,159703.81
2022-10-23T07:05:51.715Z,159726.56
2022-10-23T07:08:22.053Z,159715.84
2022-10-23T07:10:53.067Z,159734.56
2022-10-23T07:13:21.194Z,159751.91
2022-10-23T07:15:59.784Z,159766.59
2022-10-23T07:18:29.266Z,159717.16
2022-10-23T07:21:18.541Z,159802.66
2022-10-23T07:23:47.468Z,159816.03
2022-10-23T07:26:17.300Z,159841.44
2022-10-23T07:28:47.779Z,159858.78
2022-10-23T07:31:24.353Z,159862.81
2022-10-23T07:34:13.835Z,159869.50
2022-10-23T07:36:43.493Z,159841.44
2022-10-23T07:39:12.419Z,159864.16
2022-10-23T07:41:49.053Z,159876.19
2022-10-23T07:44:21.996Z,159881.56
2022-10-23T07:46:53.805Z,159889.56
2022-10-23T07:49:22.281Z,159905.59
2022-10-23T07:51:52.269Z,159933.66
2022-10-23T07:54:21.479Z,159937.63
2022-10-23T07:57:13.109Z,159967.09
2022-10-23T07:59:46.890Z,159976.44
2022-10-23T08:02:21.137Z,159995.16
2022-10-23T08:04:50.719Z,160004.50
2022-10-23T08:07:26.825Z,160012.53
2022-10-23T08:09:57.570Z,160001.84
2022-10-23T08:12:27.097Z,160039.25
2022-10-23T08:14:56.007Z,160079.44
2022-10-23T08:17:28.401Z,160099.47
2022-10-23T08:20:14.719Z,160098.13
2022-10-23T08:22:45.409Z,160110.19
2022-10-23T08:25:21.899Z,160098.13
2022-10-23T08:27:53.854Z,160100.84
2022-10-23T08:30:22.419Z,160110.19
2022-10-23T08:32:50.984Z,160106.16
2022-10-23T08:35:18.777Z,160130.25
2022-10-23T08:37:47.021Z,160127.53
2022-10-23T08:40:19.712Z,160130.25
2022-10-23T08:43:11.419Z,160120.84
2022-10-23T08:46:01.071Z,160123.56
2022-10-23T08:48:52.231Z,160107.53
2022-10-23T08:51:45.488Z,160107.53
2022-10-23T08:54:41.858Z,160155.63
2022-10-23T08:57:14.276Z,160126.22
2022-10-23T08:59:48.035Z,160132.91
2022-10-23T09:02:48.906Z,160138.28
2022-10-23T09:05:22.405Z,160139.59
2022-10-23T09:08:27.804Z,160132.91
2022-10-23T09:11:22.643Z,160144.97
2022-10-23T09:14:16.897Z,160163.66
2022-10-23T09:17:03.637Z,160185.09
2022-10-23T09:19:32.260Z,160201.13
2022-10-23T09:22:00.720Z,160222.53
2022-10-23T09:24:32.042Z,160253.28
2022-10-23T09:27:01.283Z,160285.41
2022-10-23T09:29:33.369Z,160314.84
2022-10-23T09:32:04.179Z,160360.31
2022-10-23T09:34:34.636Z,160369.69
2022-10-23T09:37:28.179Z,160384.47
2022-10-23T09:40:34.273Z,160387.13
2022-10-23T09:43:11.709Z,160367.00
2022-10-23T09:45:42.662Z,160338.91
2022-10-23T09:48:19.579Z,160352.28
2022-10-23T09:51:01.770Z,160348.28
2022-10-23T09:53:32.470Z,160345.59
2022-10-23T09:56:08.260Z,160333.59
2022-10-23T09:58:39.664Z,160344.25
2022-10-23T10:01:23.681Z,160342.94
2022-10-23T10:03:54.783Z,160346.91
2022-10-23T10:06:30.726Z,160338.91
2022-10-23T10:08:59.914Z,160322.84
2022-10-23T10:11:30.776Z,160312.19
2022-10-23T10:14:06.639Z,160304.09
2022-10-23T10:17:02.069Z,160308.13
2022-10-23T10:19:40.124Z,160312.19
2022-10-23T10:22:34.309Z,160310.78
2022-10-23T10:25:21.840Z,160308.13
2022-10-23T10:28:15.085Z,160313.50
2022-10-23T10:30:54.775Z,160324.19
2022-10-23T10:33:29.426Z,160312.19
2022-10-23T10:36:35.533Z,160318.81
2022-10-23T10:39:05.202Z,160312.19
2022-10-23T10:41:36.830Z,160304.09
2022-10-23T10:44:37.143Z,160288.06
2022-10-23T10:47:25.632Z,160300.13
2022-10-23T10:50:03.053Z,160294.75
2022-10-23T10:53:18.077Z,160296.09
2022-10-23T10:55:50.682Z,160308.13
2022-10-23T10:58:43.179Z,160310.78
2022-10-23T11:01:26.900Z,160322.84
2022-10-23T11:04:07.089Z,160324.19
2022-10-23T11:06:36.835Z,160318.81
2022-10-23T11:09:30.330Z,160337.56
2022-10-23T11:12:00.028Z,160342.94
2022-10-23T11:14:33.504Z,160341.59
2022-10-23T11:17:12.076Z,160350.94
2022-10-23T11:19:50.504Z,160355.00
2022-10-23T11:22:37.323Z,160361.69
2022-10-23T11:25:31.600Z,160337.56
2022-10-23T11:28:18.742Z,160349.63
2022-10-23T11:30:57.590Z,160326.88
2022-10-23T11:33:49.164Z,160306.81
2022-10-23T11:36:40.114Z,160310.78
2022-10-23T11:39:38.271Z,160306.81
2022-10-23T11:42:27.761Z,160305.47
2022-10-23T11:44:55.883Z,160298.78
2022-10-23T11:47:39.925Z,160320.19
2022-10-23T11:50:08.523Z,160337.56
2022-10-23T11:53:12.963Z,160363.00
2022-10-23T11:55:57.661Z,160363.00
2022-10-23T11:58:50.192Z,160372.34
2022-10-23T12:01:37.560Z,160400.50
2022-10-23T12:04:22.877Z,160387.13
2022-10-23T12:07:00.581Z,160395.16
2022-10-23T12:09:40.980Z,160412.56
2022-10-23T12:12:08.721Z,160407.19
2022-10-23T12:14:51.647Z,160395.16
2022-10-23T12:17:22.631Z,160404.53
2022-10-23T12:19:53.809Z,160405.88
2022-10-23T12:22:28.685Z,160409.88
2022-10-23T12:25:14.281Z,160408.53
2022-10-23T12:27:45.061Z,160401.84
2022-10-23T12:30:16.433Z,160383.13
2022-10-23T12:32:57.680Z,160372.34
2022-10-23T12:35:57.839Z,160365.66
2022-10-23T12:38:31.320Z,160349.63
2022-10-23T12:41:26.990Z,160326.88
2022-10-23T12:43:58.246Z,160313.50
2022-10-23T12:46:39.923Z,160306.81
2022-10-23T12:49:26.185Z,160288.06
2022-10-23T12:52:07.703Z,160285.41
2022-10-23T12:54:43.348Z,160286.75
2022-10-23T12:57:28.697Z,160264.00
2022-10-23T13:00:02.692Z,160281.38
2022-10-23T13:02:34.128Z,160284.09
2022-10-23T13:05:07.005Z,160284.09
2022-10-23T13:07:38.439Z,160277.38
2022-10-23T13:10:08.205Z,160280.03
2022-10-23T13:12:47.692Z,160266.66
2022-10-23T13:15:19.419Z,160265.34
2022-10-23T13:18:00.934Z,160272.03
2022-10-23T13:20:34.614Z,160261.28
2022-10-23T13:23:03.265Z,160266.66
2022-10-23T13:25:33.202Z,160243.94
2022-10-23T13:28:13.589Z,160241.22
2022-10-23T13:30:46.317Z,160241.22
2022-10-23T13:33:25.075Z,160251.94
2022-10-23T13:35:58.261Z,160242.59
2022-10-23T13:38:35.186Z,160250.63
2022-10-23T13:41:05.864Z,160257.31
2022-10-23T13:43:34.626Z,160235.91
2022-10-23T13:46:03.408Z,160254.59
2022-10-23T13:48:33.190Z,160269.31
2022-10-23T13:51:15.738Z,160250.63
2022-10-23T13:53:44.113Z,160253.28
2022-10-23T13:56:14.100Z,160247.91
2022-10-23T13:58:42.803Z,160261.28
2022-10-23T14:01:30.348Z,160285.41
2022-10-23T14:03:59.307Z,160280.03
2022-10-23T14:06:27.411Z,160265.34
2022-10-23T14:08:55.745Z,160264.00
2022-10-23T14:11:24.107Z,160266.66
2022-10-23T14:13:52.929Z,160264.00
2022-10-23T14:16:22.365Z,160274.69
2022-10-23T14:18:51.130Z,160282.69
2022-10-23T14:21:21.640Z,160282.69
2022-10-23T14:23:50.620Z,160266.66
2022-10-23T14:26:21.534Z,160277.38
2022-10-23T14:28:53.181Z,160280.03
2022-10-23T14:31:21.841Z,160297.41
2022-10-23T14:33:56.273Z,160282.69
2022-10-23T14:36:28.292Z,160274.69
2022-10-23T14:39:02.602Z,160264.00
2022-10-23T14:41:30.843Z,160282.69
2022-10-23T14:43:59.990Z,160257.31
2022-10-23T14:46:28.600Z,160266.66
2022-10-23T14:48:58.747Z,160251.94
2022-10-23T14:51:31.061Z,160234.59
2022-10-23T14:54:04.856Z,160231.88
2022-10-23T14:56:35.384Z,160231.88
2022-10-23T14:59:04.208Z,160235.91
2022-10-23T15:01:34.041Z,160231.88
2022-10-23T15:04:02.691Z,160258.63
2022-10-23T15:06:30.945Z,160238.56
2022-10-23T15:08:59.590Z,160239.91
2022-10-23T15:11:28.090Z,160231.88
2022-10-23T15:13:56.844Z,160229.22
2022-10-23T15:16:25.570Z,160217.16
2022-10-23T15:18:53.824Z,160214.50
2022-10-23T15:21:22.261Z,160195.75
2022-10-23T15:23:50.821Z,160198.41
2022-10-23T15:26:22.915Z,160191.72
2022-10-23T15:29:00.818Z,160189.06
2022-10-23T15:31:42.930Z,160190.41
2022-10-23T15:34:17.979Z,160187.75
2022-10-23T15:36:47.309Z,160183.72
2022-10-23T15:39:18.812Z,160174.38
2022-10-23T15:41:47.364Z,160177.03
2022-10-23T15:44:17.747Z,160162.31
2022-10-23T15:46:46.385Z,160139.59
2022-10-23T15:49:15.026Z,160159.66
2022-10-23T15:51:43.971Z,160140.91
2022-10-23T15:54:19.480Z,160140.91
2022-10-23T15:56:49.316Z,160138.28
2022-10-23T15:59:19.264Z,160127.53
2022-10-23T16:01:47.603Z,160127.53
2022-10-23T16:04:16.423Z,160120.84
2022-10-23T16:06:45.026Z,160119.53
2022-10-23T16:09:13.687Z,160108.84
2022-10-23T16:11:42.958Z,160106.16
2022-10-23T16:14:14.503Z,160108.84
2022-10-23T16:16:42.701Z,160099.47
2022-10-23T16:19:11.741Z,160120.84
2022-10-23T16:21:39.956Z,160115.53
2022-10-23T16:24:08.945Z,160123.56
2022-10-23T16:26:38.065Z,160126.22
2022-10-23T16:29:07.349Z,160119.53
2022-10-23T16:31:35.950Z,160120.84
2022-10-23T16:34:05.604Z,160116.88
2022-10-23T16:36:35.129Z,160110.19
2022-10-23T16:39:21.771Z,160099.47
2022-10-23T16:42:08.208Z,160084.75
2022-10-23T16:45:15.336Z,160047.28
2022-10-23T16:47:43.588Z,160064.69
2022-10-23T16:50:11.806Z,160055.34
2022-10-23T16:52:39.632Z,160067.41
2022-10-23T16:55:08.913Z,160064.69
2022-10-23T16:57:36.962Z,160060.72
2022-10-23T17:00:07.231Z,160059.38
2022-10-23T17:02:38.316Z,160062.03
2022-10-23T17:05:06.820Z,160058.06
2022-10-23T17:07:34.722Z,160056.69
2022-10-23T17:10:03.368Z,160059.38
2022-10-23T17:12:31.815Z,160051.38
2022-10-23T17:15:00.135Z,160048.63
2022-10-23T17:17:28.205Z,160048.63
2022-10-23T17:19:56.507Z,160031.25
2022-10-23T17:22:24.612Z,160036.56
2022-10-23T17:24:54.176Z,160037.94
2022-10-23T17:27:22.360Z,160029.94
2022-10-23T17:29:50.834Z,160021.88
2022-10-23T17:32:18.808Z,160017.88
2022-10-23T17:34:47.156Z,160019.22
2022-10-23T17:37:15.244Z,160009.88
2022-10-23T17:39:43.607Z,159988.47
2022-10-23T17:42:11.636Z,159991.13
2022-10-23T17:44:40.269Z,160004.50
2022-10-23T17:47:08.425Z,159983.13
2022-10-23T17:49:37.605Z,159993.78
2022-10-23T17:52:06.687Z,159987.09
2022-10-23T17:54:34.728Z,159969.75
2022-10-23T17:57:03.142Z,159959.03
2022-10-23T17:59:31.659Z,159943.00
2022-10-23T18:02:01.226Z,159926.97
2022-10-23T18:04:29.751Z,159909.56
2022-10-23T18:06:57.768Z,159864.16
2022-10-23T18:09:26.166Z,159854.81
2022-10-23T18:11:54.094Z,159817.38
2022-10-23T18:14:26.057Z,159785.31
2022-10-23T18:16:57.069Z,159773.28
2022-10-23T18:19:25.246Z,159746.56
2022-10-23T18:21:53.646Z,159727.88
2022-10-23T18:24:22.028Z,159701.16
2022-10-23T18:26:50.709Z,159678.41
2022-10-23T18:29:19.080Z,159650.34
2022-10-23T18:31:48.483Z,159624.94
2022-10-23T18:34:24.772Z,159598.22
2022-10-23T18:36:54.557Z,159572.88
2022-10-23T18:39:25.376Z,159547.50
2022-10-23T18:41:59.490Z,159522.16
2022-10-23T18:44:30.373Z,159495.44
2022-10-23T18:47:00.195Z,159479.38
2022-10-23T18:49:28.838Z,159460.72
2022-10-23T18:51:58.552Z,159438.03
2022-10-23T18:54:27.162Z,159408.63
2022-10-23T18:56:55.090Z,159397.97
2022-10-23T18:59:22.774Z,159371.28
2022-10-23T19:01:51.126Z,159335.25
2022-10-23T19:04:19.430Z,159316.56
2022-10-23T19:06:48.493Z,159305.91
2022-10-23T19:09:16.749Z,159291.22
2022-10-23T19:11:45.464Z,159279.19
2022-10-23T19:14:13.652Z,159260.44
2022-10-23T19:17:09.221Z,159248.47
2022-10-23T19:20:07.181Z,159217.75
2022-10-23T19:22:35.869Z,159196.41
2022-10-23T19:25:10.476Z,159160.41
2022-10-23T19:27:39.351Z,159156.44
2022-10-23T19:30:13.700Z,159136.41
2022-10-23T19:32:42.464Z,159123.06
2022-10-23T19:35:11.945Z,159117.72
2022-10-23T19:37:39.541Z,159111.03
2022-10-23T19:40:09.237Z,159104.38
2022-10-23T19:42:39.129Z,159092.41
2022-10-23T19:45:09.478Z,159073.72
2022-10-23T19:47:36.909Z,159067.03
2022-10-23T19:50:06.551Z,159033.69
2022-10-23T19:52:34.799Z,159009.72
2022-10-23T19:55:03.655Z,158991.03
2022-10-23T19:57:34.133Z,158985.69
2022-10-23T20:00:02.465Z,158959.06
2022-10-23T20:02:38.249Z,158948.38
2022-10-23T20:05:07.484Z,158935.03
2022-10-23T20:07:36.187Z,158923.00
2022-10-23T20:10:08.581Z,158907.03
2022-10-23T20:12:36.208Z,158881.72
2022-10-23T20:15:04.216Z,158859.03
2022-10-23T20:17:31.674Z,158845.69
2022-10-23T20:19:59.332Z,158840.41
2022-10-23T20:22:26.807Z,158856.41
2022-10-23T20:24:54.433Z,158859.03
2022-10-23T20:27:22.631Z,158859.03
2022-10-23T20:29:50.485Z,158857.72
2022-10-23T20:32:17.949Z,158848.41
2022-10-23T20:34:45.595Z,158841.72
2022-10-23T20:37:13.260Z,158833.75
2022-10-23T20:39:41.007Z,158820.41
2022-10-23T20:42:08.520Z,158787.09
2022-10-23T20:44:36.592Z,158765.72
2022-10-23T20:47:04.548Z,158755.06
2022-10-23T20:49:31.952Z,158763.06
2022-10-23T20:51:59.280Z,158764.38
2022-10-23T20:54:28.951Z,158763.06
2022-10-23T20:56:57.230Z,158763.06
2022-10-23T20:59:25.581Z,158749.72
2022-10-23T21:01:53.802Z,158749.72
2022-10-23T21:04:24.520Z,158757.72
2022-10-23T21:07:10.400Z,158749.72
2022-10-23T21:09:39.706Z,158745.72
2022-10-23T21:12:07.520Z,158736.41
2022-10-23T21:14:36.425Z,158711.06
2022-10-23T21:17:04.070Z,158705.78
2022-10-23T21:19:31.862Z,158720.44
2022-10-23T21:22:00.139Z,158715.09
2022-10-23T21:24:27.922Z,158679.13
2022-10-23T21:26:55.396Z,158687.09
2022-10-23T21:29:22.901Z,158679.13
2022-10-23T21:31:59.202Z,158665.78
2022-10-23T21:34:27.136Z,158641.84
2022-10-23T21:39:44.090Z,158619.16
2022-10-23T21:42:13.026Z,158581.88
2022-10-23T21:44:40.716Z,158611.16
2022-10-23T21:47:08.058Z,158613.84
2022-10-23T21:49:35.843Z,158617.81
2022-10-23T21:52:04.778Z,158600.53
2022-10-23T21:54:32.650Z,158599.16
2022-10-23T21:57:00.057Z,158584.50
2022-10-23T21:59:30.313Z,158576.53
2022-10-23T22:01:59.799Z,158576.53
2022-10-23T22:04:27.654Z,158568.56
2022-10-23T22:06:55.190Z,158545.91
2022-10-23T22:09:23.431Z,158575.22
2022-10-23T22:11:52.017Z,158568.56
2022-10-23T22:14:21.854Z,158573.88
2022-10-23T22:16:50.085Z,158567.22
2022-10-23T22:19:19.429Z,158569.88
2022-10-23T22:21:48.092Z,158568.56
2022-10-23T22:24:17.661Z,158551.25
2022-10-23T22:26:48.447Z,158543.22
2022-10-23T22:29:19.440Z,158545.91
2022-10-23T22:31:49.688Z,158547.25
2022-10-23T22:34:47.955Z,158541.91
2022-10-23T22:37:13.486Z,158515.31
2022-10-23T22:39:41.795Z,158545.91
2022-10-23T22:42:09.236Z,158512.63
2022-10-23T22:44:37.071Z,158535.25
2022-10-23T22:47:04.565Z,158528.56
2022-10-23T22:49:32.185Z,158496.66
2022-10-23T22:51:59.750Z,158513.94
2022-10-23T22:54:27.429Z,158490.00
2022-10-23T22:56:54.850Z,158484.66
2022-10-23T22:59:22.697Z,158485.97
2022-10-23T23:01:50.804Z,158472.66
2022-10-23T23:07:11.515Z,158459.38
2022-10-23T23:09:43.620Z,158448.72
2022-10-23T23:12:13.013Z,158458.00
2022-10-23T23:14:41.770Z,158466.00
2022-10-23T23:17:09.899Z,158459.38
2022-10-23T23:19:38.143Z,158446.06
2022-10-23T23:22:05.934Z,158452.72
2022-10-23T23:24:34.129Z,158458.00
2022-10-23T23:27:01.690Z,158458.00
2022-10-23T23:29:29.865Z,158459.38
2022-10-23T23:31:57.352Z,158487.34
2022-10-23T23:34:24.967Z,158491.31
2022-10-23T23:36:52.622Z,158545.91
2022-10-23T23:39:20.326Z,158613.84
2022-10-23T23:41:47.628Z,158651.16
2022-10-23T23:44:15.429Z,158645.81
2022-10-23T23:46:42.763Z,158661.78
2022-10-23T23:49:10.359Z,158672.47
2022-10-23T23:51:37.782Z,158648.44
2022-10-23T23:54:05.447Z,158660.44
2022-10-23T23:56:32.694Z,158660.44
2022-10-23T23:59:00.407Z,158652.47
